sensor_id;sensor_type;location;lat;lon;timestamp;pressure;altitude;pressure_sealevel;temperature;humidity
60240;BME280;46102;39.012;-7.064;2022-11-02T00:00:47;99224.94;;;12.51;71.84
60240;BME280;46102;39.012;-7.064;2022-11-02T00:02:48;99229.31;;;12.52;72.17
60240;BME280;46102;39.012;-7.064;2022-11-02T00:04:49;99229.94;;;12.49;71.61
60240;BME280;46102;39.012;-7.064;2022-11-02T00:06:50;99232.50;;;12.45;72.15
60240;BME280;46102;39.012;-7.064;2022-11-02T00:08:51;99229.88;;;12.40;72.24
60240;BME280;46102;39.012;-7.064;2022-11-02T00:10:51;99228.75;;;12.41;72.44
60240;BME280;46102;39.012;-7.064;2022-11-02T00:12:53;99228.75;;;12.41;72.41
60240;BME280;46102;39.012;-7.064;2022-11-02T00:14:54;99234.38;;;12.36;72.84
60240;BME280;46102;39.012;-7.064;2022-11-02T00:16:55;99231.63;;;12.36;72.34
60240;BME280;46102;39.012;-7.064;2022-11-02T00:18:57;99236.50;;;12.39;72.26
60240;BME280;46102;39.012;-7.064;2022-11-02T00:21:00;99229.00;;;12.31;72.58
60240;BME280;46102;39.012;-7.064;2022-11-02T00:23:01;99232.19;;;12.24;72.85
60240;BME280;46102;39.012;-7.064;2022-11-02T00:25:03;99236.88;;;12.24;73.46
60240;BME280;46102;39.012;-7.064;2022-11-02T00:27:06;99229.75;;;12.23;73.54
60240;BME280;46102;39.012;-7.064;2022-11-02T00:29:07;99233.31;;;12.23;73.34
60240;BME280;46102;39.012;-7.064;2022-11-02T00:31:08;99232.44;;;12.14;73.68
60240;BME280;46102;39.012;-7.064;2022-11-02T00:33:08;99231.13;;;12.12;73.63
60240;BME280;46102;39.012;-7.064;2022-11-02T00:35:10;99227.44;;;12.16;73.67
60240;BME280;46102;39.012;-7.064;2022-11-02T00:37:10;99227.66;;;12.06;73.88
60240;BME280;46102;39.012;-7.064;2022-11-02T00:39:12;99226.84;;;12.05;73.78
60240;BME280;46102;39.012;-7.064;2022-11-02T00:41:13;99224.22;;;12.00;74.39
60240;BME280;46102;39.012;-7.064;2022-11-02T00:43:14;99221.56;;;11.95;74.53
60240;BME280;46102;39.012;-7.064;2022-11-02T00:45:15;99212.41;;;12.00;74.52
60240;BME280;46102;39.012;-7.064;2022-11-02T00:47:16;99207.53;;;11.97;74.42
60240;BME280;46102;39.012;-7.064;2022-11-02T00:49:17;99204.78;;;11.97;74.51
60240;BME280;46102;39.012;-7.064;2022-11-02T00:51:18;99208.34;;;11.97;74.72
60240;BME280;46102;39.012;-7.064;2022-11-02T00:53:19;99201.72;;;11.98;74.27
60240;BME280;46102;39.012;-7.064;2022-11-02T00:55:25;99203.78;;;11.93;74.73
60240;BME280;46102;39.012;-7.064;2022-11-02T00:57:29;99212.94;;;11.88;74.89
60240;BME280;46102;39.012;-7.064;2022-11-02T00:59:30;99211.59;;;11.85;74.98
60240;BME280;46102;39.012;-7.064;2022-11-02T01:01:31;99204.06;;;11.77;75.61
60240;BME280;46102;39.012;-7.064;2022-11-02T01:03:33;99201.97;;;11.74;76.04
60240;BME280;46102;39.012;-7.064;2022-11-02T01:05:35;99198.41;;;11.74;75.75
60240;BME280;46102;39.012;-7.064;2022-11-02T01:07:36;99200.00;;;11.75;75.96
60240;BME280;46102;39.012;-7.064;2022-11-02T01:09:38;99195.31;;;11.75;75.87
60240;BME280;46102;39.012;-7.064;2022-11-02T01:11:40;99184.84;;;11.77;75.86
60240;BME280;46102;39.012;-7.064;2022-11-02T01:13:41;99184.75;;;11.82;76.02
60240;BME280;46102;39.012;-7.064;2022-11-02T01:15:42;99186.97;;;11.80;75.71
60240;BME280;46102;39.012;-7.064;2022-11-02T01:17:43;99182.28;;;11.81;75.58
60240;BME280;46102;39.012;-7.064;2022-11-02T01:19:44;99188.09;;;11.79;76.16
60240;BME280;46102;39.012;-7.064;2022-11-02T01:21:44;99189.91;;;11.84;75.63
60240;BME280;46102;39.012;-7.064;2022-11-02T01:23:45;99191.97;;;11.92;75.55
60240;BME280;46102;39.012;-7.064;2022-11-02T01:25:46;99191.22;;;11.86;75.75
60240;BME280;46102;39.012;-7.064;2022-11-02T01:27:47;99188.00;;;11.84;75.87
60240;BME280;46102;39.012;-7.064;2022-11-02T01:29:47;99183.91;;;11.82;75.98
60240;BME280;46102;39.012;-7.064;2022-11-02T01:31:49;99180.97;;;11.78;76.21
60240;BME280;46102;39.012;-7.064;2022-11-02T01:33:51;99179.03;;;11.79;76.29
60240;BME280;46102;39.012;-7.064;2022-11-02T01:35:52;99175.47;;;11.78;76.35
60240;BME280;46102;39.012;-7.064;2022-11-02T01:37:53;99169.19;;;11.78;76.12
60240;BME280;46102;39.012;-7.064;2022-11-02T01:39:54;99173.41;;;11.84;75.93
60240;BME280;46102;39.012;-7.064;2022-11-02T01:41:54;99180.75;;;11.88;75.80
60240;BME280;46102;39.012;-7.064;2022-11-02T01:43:57;99179.66;;;11.90;75.73
60240;BME280;46102;39.012;-7.064;2022-11-02T01:46:12;99175.06;;;11.85;75.45
60240;BME280;46102;39.012;-7.064;2022-11-02T01:48:14;99171.81;;;11.83;75.72
60240;BME280;46102;39.012;-7.064;2022-11-02T01:50:22;99169.84;;;11.83;75.66
60240;BME280;46102;39.012;-7.064;2022-11-02T01:52:31;99172.31;;;11.85;75.49
60240;BME280;46102;39.012;-7.064;2022-11-02T01:54:42;99172.50;;;11.88;75.64
60240;BME280;46102;39.012;-7.064;2022-11-02T01:56:49;99166.22;;;11.88;75.56
60240;BME280;46102;39.012;-7.064;2022-11-02T01:58:54;99173.84;;;11.91;75.25
60240;BME280;46102;39.012;-7.064;2022-11-02T02:00:56;99168.34;;;11.91;75.12
60240;BME280;46102;39.012;-7.064;2022-11-02T02:03:01;99165.59;;;11.91;75.28
60240;BME280;46102;39.012;-7.064;2022-11-02T02:05:08;99172.22;;;11.90;75.18
60240;BME280;46102;39.012;-7.064;2022-11-02T02:07:11;99174.47;;;11.88;75.27
60240;BME280;46102;39.012;-7.064;2022-11-02T02:09:13;99176.59;;;11.91;75.06
60240;BME280;46102;39.012;-7.064;2022-11-02T02:11:30;99170.78;;;11.93;75.19
60240;BME280;46102;39.012;-7.064;2022-11-02T02:13:32;99177.91;;;11.94;75.37
60240;BME280;46102;39.012;-7.064;2022-11-02T02:20:15;99185.53;;;11.97;75.13
60240;BME280;46102;39.012;-7.064;2022-11-02T02:24:30;99184.91;;;12.00;74.81
60240;BME280;46102;39.012;-7.064;2022-11-02T02:29:13;99180.75;;;12.02;75.02
60240;BME280;46102;39.012;-7.064;2022-11-02T02:31:22;99174.91;;;12.04;74.75
60240;BME280;46102;39.012;-7.064;2022-11-02T02:33:34;99180.41;;;12.04;74.55
60240;BME280;46102;39.012;-7.064;2022-11-02T02:35:47;99169.41;;;12.04;74.87
60240;BME280;46102;39.012;-7.064;2022-11-02T02:37:53;99169.41;;;12.04;74.58
60240;BME280;46102;39.012;-7.064;2022-11-02T02:40:04;99173.28;;;12.03;75.03
60240;BME280;46102;39.012;-7.064;2022-11-02T02:42:33;99177.06;;;12.07;74.65
60240;BME280;46102;39.012;-7.064;2022-11-02T02:44:37;99175.09;;;12.07;74.67
60240;BME280;46102;39.012;-7.064;2022-11-02T02:48:45;99171.72;;;12.11;74.23
60240;BME280;46102;39.012;-7.064;2022-11-02T02:50:49;99169.28;;;12.09;74.37
60240;BME280;46102;39.012;-7.064;2022-11-02T02:52:52;99161.84;;;12.10;74.33
60240;BME280;46102;39.012;-7.064;2022-11-02T02:54:56;99160.22;;;12.08;74.81
60240;BME280;46102;39.012;-7.064;2022-11-02T02:57:05;99165.41;;;12.10;74.56
60240;BME280;46102;39.012;-7.064;2022-11-02T02:59:14;99161.84;;;12.10;74.33
60240;BME280;46102;39.012;-7.064;2022-11-02T03:01:17;99162.97;;;12.08;74.51
60240;BME280;46102;39.012;-7.064;2022-11-02T03:03:20;99163.31;;;12.07;74.72
60240;BME280;46102;39.012;-7.064;2022-11-02T03:05:23;99158.91;;;12.06;74.53
60240;BME280;46102;39.012;-7.064;2022-11-02T03:07:29;99147.91;;;12.06;74.62
60240;BME280;46102;39.012;-7.064;2022-11-02T03:11:50;99153.66;;;11.96;74.56
60240;BME280;46102;39.012;-7.064;2022-11-02T03:20:56;99136.72;;;11.66;75.85
60240;BME280;46102;39.012;-7.064;2022-11-02T03:27:34;99117.59;;;11.61;76.53
60240;BME280;46102;39.012;-7.064;2022-11-02T03:29:52;99119.34;;;11.57;76.53
60240;BME280;46102;39.012;-7.064;2022-11-02T03:32:07;99120.19;;;11.57;76.60
60240;BME280;46102;39.012;-7.064;2022-11-02T03:34:21;99119.34;;;11.57;76.33
60240;BME280;46102;39.012;-7.064;2022-11-02T03:36:32;99119.25;;;11.62;76.83
60240;BME280;46102;39.012;-7.064;2022-11-02T03:38:43;99115.06;;;11.64;76.77
60240;BME280;46102;39.012;-7.064;2022-11-02T03:40:47;99126.22;;;11.68;76.71
60240;BME280;46102;39.012;-7.064;2022-11-02T03:42:52;99125.13;;;11.69;76.70
60240;BME280;46102;39.012;-7.064;2022-11-02T03:44:58;99125.22;;;11.64;76.61
60240;BME280;46102;39.012;-7.064;2022-11-02T03:47:02;99127.16;;;11.63;76.78
60240;BME280;46102;39.012;-7.064;2022-11-02T03:49:05;99117.81;;;11.64;76.59
60240;BME280;46102;39.012;-7.064;2022-11-02T03:51:10;99111.00;;;11.62;76.83
60240;BME280;46102;39.012;-7.064;2022-11-02T03:53:19;99113.75;;;11.62;76.77
60240;BME280;46102;39.012;-7.064;2022-11-02T03:55:29;99107.13;;;11.63;76.38
60240;BME280;46102;39.012;-7.064;2022-11-02T03:57:42;99107.13;;;11.63;76.37
60240;BME280;46102;39.012;-7.064;2022-11-02T03:59:44;99108.44;;;11.65;76.14
60240;BME280;46102;39.012;-7.064;2022-11-02T04:01:48;99108.25;;;11.62;76.32
60240;BME280;46102;39.012;-7.064;2022-11-02T04:03:50;99109.56;;;11.64;76.55
60240;BME280;46102;39.012;-7.064;2022-11-02T04:05:51;99113.94;;;11.65;76.44
60240;BME280;46102;39.012;-7.064;2022-11-02T04:08:00;99107.94;;;11.63;76.85
60240;BME280;46102;39.012;-7.064;2022-11-02T04:10:21;99107.31;;;11.66;76.32
60240;BME280;46102;39.012;-7.064;2022-11-02T04:12:22;99110.69;;;11.63;76.42
60240;BME280;46102;39.012;-7.064;2022-11-02T04:14:42;99119.56;;;11.60;76.53
60240;BME280;46102;39.012;-7.064;2022-11-02T04:16:49;99122.81;;;11.62;76.49
60240;BME280;46102;39.012;-7.064;2022-11-02T04:19:11;99127.97;;;11.64;76.46
60240;BME280;46102;39.012;-7.064;2022-11-02T04:21:29;99123.31;;;11.64;76.79
60240;BME280;46102;39.012;-7.064;2022-11-02T04:23:32;99125.22;;;11.64;77.04
60240;BME280;46102;39.012;-7.064;2022-11-02T04:25:52;99122.97;;;11.66;76.79
60240;BME280;46102;39.012;-7.064;2022-11-02T04:28:08;99123.81;;;11.66;77.02
60240;BME280;46102;39.012;-7.064;2022-11-02T04:30:20;99126.06;;;11.64;77.27
60240;BME280;46102;39.012;-7.064;2022-11-02T04:32:21;99125.72;;;11.66;76.99
60240;BME280;46102;39.012;-7.064;2022-11-02T04:34:45;99136.72;;;11.66;77.15
60240;BME280;46102;39.012;-7.064;2022-11-02T04:36:46;99133.16;;;11.65;77.27
60240;BME280;46102;39.012;-7.064;2022-11-02T04:38:47;99140.81;;;11.69;77.07
60240;BME280;46102;39.012;-7.064;2022-11-02T04:41:00;99134.97;;;11.70;76.56
60240;BME280;46102;39.012;-7.064;2022-11-02T04:43:22;99134.69;;;11.72;76.45
60240;BME280;46102;39.012;-7.064;2022-11-02T04:45:23;99131.13;;;11.71;76.40
60240;BME280;46102;39.012;-7.064;2022-11-02T04:47:26;99134.69;;;11.72;76.78
60240;BME280;46102;39.012;-7.064;2022-11-02T04:49:27;99119.63;;;11.69;77.10
60240;BME280;46102;39.012;-7.064;2022-11-02T04:51:29;99128.16;;;11.67;77.21
60240;BME280;46102;39.012;-7.064;2022-11-02T04:53:30;99126.56;;;11.66;77.19
60240;BME280;46102;39.012;-7.064;2022-11-02T04:55:32;99114.72;;;11.66;76.94
60240;BME280;46102;39.012;-7.064;2022-11-02T04:57:33;99129.31;;;11.66;76.99
60240;BME280;46102;39.012;-7.064;2022-11-02T04:59:34;99121.88;;;11.67;77.20
60240;BME280;46102;39.012;-7.064;2022-11-02T05:01:35;99119.72;;;11.64;77.26
60240;BME280;46102;39.012;-7.064;2022-11-02T05:03:37;99119.25;;;11.62;77.36
60240;BME280;46102;39.012;-7.064;2022-11-02T05:05:37;99113.84;;;11.57;77.05
60240;BME280;46102;39.012;-7.064;2022-11-02T05:07:38;99125.97;;;11.56;77.11
60240;BME280;46102;39.012;-7.064;2022-11-02T05:09:39;99122.94;;;11.57;76.79
60240;BME280;46102;39.012;-7.064;2022-11-02T05:11:42;99128.91;;;11.59;76.83
60240;BME280;46102;39.012;-7.064;2022-11-02T05:13:44;99128.31;;;11.62;76.79
60240;BME280;46102;39.012;-7.064;2022-11-02T05:15:45;99130.84;;;11.59;76.64
60240;BME280;46102;39.012;-7.064;2022-11-02T05:17:49;99133.09;;;11.57;76.97
60240;BME280;46102;39.012;-7.064;2022-11-02T05:19:51;99128.91;;;11.59;77.17
60240;BME280;46102;39.012;-7.064;2022-11-02T05:21:54;99132.38;;;11.65;77.19
60240;BME280;46102;39.012;-7.064;2022-11-02T05:23:56;99137.56;;;11.66;76.98
60240;BME280;46102;39.012;-7.064;2022-11-02T05:26:01;99141.28;;;11.71;76.67
60240;BME280;46102;39.012;-7.064;2022-11-02T05:28:04;99147.28;;;11.73;76.83
60240;BME280;46102;39.012;-7.064;2022-11-02T05:30:05;99150.03;;;11.73;76.73
60240;BME280;46102;39.012;-7.064;2022-11-02T05:32:07;99153.91;;;11.72;77.13
60240;BME280;46102;39.012;-7.064;2022-11-02T05:34:09;99158.63;;;11.71;77.66
60240;BME280;46102;39.012;-7.064;2022-11-02T05:36:10;99153.63;;;11.73;77.38
60240;BME280;46102;39.012;-7.064;2022-11-02T05:38:14;99153.91;;;11.72;77.53
60240;BME280;46102;39.012;-7.064;2022-11-02T05:40:18;99166.34;;;11.69;77.57
60240;BME280;46102;39.012;-7.064;2022-11-02T05:42:19;99165.22;;;11.70;77.99
60240;BME280;46102;39.012;-7.064;2022-11-02T05:44:20;99158.91;;;11.70;78.14
60240;BME280;46102;39.012;-7.064;2022-11-02T05:46:21;99160.34;;;11.67;78.29
60240;BME280;46102;39.012;-7.064;2022-11-02T05:48:22;99153.72;;;11.68;78.40
60240;BME280;46102;39.012;-7.064;2022-11-02T05:50:23;99154.84;;;11.67;78.25
60240;BME280;46102;39.012;-7.064;2022-11-02T05:52:26;99162.47;;;11.70;78.35
60240;BME280;46102;39.012;-7.064;2022-11-02T05:54:27;99157.78;;;11.71;78.74
60240;BME280;46102;39.012;-7.064;2022-11-02T05:56:28;99172.75;;;11.78;78.61
60240;BME280;46102;39.012;-7.064;2022-11-02T05:58:29;99169.69;;;11.80;78.89
60240;BME280;46102;39.012;-7.064;2022-11-02T06:00:29;99177.22;;;11.74;78.91
60240;BME280;46102;39.012;-7.064;2022-11-02T06:02:32;99170.59;;;11.75;79.34
60240;BME280;46102;39.012;-7.064;2022-11-02T06:04:33;99176.91;;;11.76;79.17
60240;BME280;46102;39.012;-7.064;2022-11-02T06:06:34;99177.44;;;11.78;79.37
60240;BME280;46102;39.012;-7.064;2022-11-02T06:08:35;99170.78;;;11.79;79.80
60240;BME280;46102;39.012;-7.064;2022-11-02T06:10:36;99167.41;;;11.82;79.85
60240;BME280;46102;39.012;-7.064;2022-11-02T06:12:37;99161.81;;;11.87;79.80
60240;BME280;46102;39.012;-7.064;2022-11-02T06:14:38;99171.72;;;11.88;79.58
60240;BME280;46102;39.012;-7.064;2022-11-02T06:16:39;99171.16;;;11.86;79.79
60240;BME280;46102;39.012;-7.064;2022-11-02T06:18:40;99169.06;;;11.83;80.01
60240;BME280;46102;39.012;-7.064;2022-11-02T06:20:41;99162.75;;;11.82;79.78
60240;BME280;46102;39.012;-7.064;2022-11-02T06:22:42;99160.00;;;11.82;79.68
60240;BME280;46102;39.012;-7.064;2022-11-02T06:24:43;99166.31;;;11.83;79.71
60240;BME280;46102;39.012;-7.064;2022-11-02T06:26:44;99177.59;;;11.81;79.88
60240;BME280;46102;39.012;-7.064;2022-11-02T06:28:46;99172.75;;;11.78;79.84
60240;BME280;46102;39.012;-7.064;2022-11-02T06:30:47;99173.34;;;11.75;80.21
60240;BME280;46102;39.012;-7.064;2022-11-02T06:32:50;99172.53;;;11.75;80.00
60240;BME280;46102;39.012;-7.064;2022-11-02T06:34:51;99167.03;;;11.75;80.23
60240;BME280;46102;39.012;-7.064;2022-11-02T06:36:52;99159.59;;;11.75;80.15
60240;BME280;46102;39.012;-7.064;2022-11-02T06:38:53;99151.69;;;11.74;80.15
60240;BME280;46102;39.012;-7.064;2022-11-02T06:41:02;99164.63;;;11.73;80.18
60240;BME280;46102;39.012;-7.064;2022-11-02T06:43:05;99159.13;;;11.73;80.50
60240;BME280;46102;39.012;-7.064;2022-11-02T06:45:07;99163.19;;;11.76;80.93
60240;BME280;46102;39.012;-7.064;2022-11-02T06:47:08;99155.44;;;11.78;80.75
60240;BME280;46102;39.012;-7.064;2022-11-02T06:49:08;99159.00;;;11.78;81.25
60240;BME280;46102;39.012;-7.064;2022-11-02T06:51:09;99166.59;;;11.81;81.39
60240;BME280;46102;39.012;-7.064;2022-11-02T06:53:10;99165.59;;;11.77;81.74
60240;BME280;46102;39.012;-7.064;2022-11-02T06:55:12;99165.41;;;11.74;82.21
60240;BME280;46102;39.012;-7.064;2022-11-02T06:57:13;99167.03;;;11.75;82.58
60240;BME280;46102;39.012;-7.064;2022-11-02T06:59:13;99161.22;;;11.76;82.53
60240;BME280;46102;39.012;-7.064;2022-11-02T07:01:14;99167.03;;;11.75;82.88
60240;BME280;46102;39.012;-7.064;2022-11-02T07:03:15;99162.84;;;11.77;82.62
60240;BME280;46102;39.012;-7.064;2022-11-02T07:05:16;99163.69;;;11.78;82.58
60240;BME280;46102;39.012;-7.064;2022-11-02T07:07:17;99170.78;;;11.79;82.77
60240;BME280;46102;39.012;-7.064;2022-11-02T07:09:18;99165.00;;;11.80;82.93
60240;BME280;46102;39.012;-7.064;2022-11-02T07:11:18;99164.88;;;11.85;83.18
60240;BME280;46102;39.012;-7.064;2022-11-02T07:13:19;99171.59;;;11.93;82.65
60240;BME280;46102;39.012;-7.064;2022-11-02T07:15:21;99166.78;;;11.99;82.71
60240;BME280;46102;39.012;-7.064;2022-11-02T07:17:22;99178.78;;;12.03;82.77
60240;BME280;46102;39.012;-7.064;2022-11-02T07:19:23;99170.41;;;12.08;82.69
60240;BME280;46102;39.012;-7.064;2022-11-02T07:21:23;99169.97;;;12.15;82.31
60240;BME280;46102;39.012;-7.064;2022-11-02T07:23:24;99173.91;;;12.22;82.55
60240;BME280;46102;39.012;-7.064;2022-11-02T07:25:27;99171.72;;;12.33;82.47
60240;BME280;46102;39.012;-7.064;2022-11-02T07:27:30;99181.53;;;12.48;82.50
60240;BME280;46102;39.012;-7.064;2022-11-02T07:29:31;99186.66;;;12.63;81.86
60240;BME280;46102;39.012;-7.064;2022-11-02T07:31:31;99188.97;;;12.79;81.73
60240;BME280;46102;39.012;-7.064;2022-11-02T07:33:32;99195.25;;;13.02;80.85
60240;BME280;46102;39.012;-7.064;2022-11-02T07:35:33;99202.91;;;13.13;80.02
60240;BME280;46102;39.012;-7.064;2022-11-02T07:37:34;99198.53;;;13.21;79.62
60240;BME280;46102;39.012;-7.064;2022-11-02T07:39:35;99196.66;;;13.30;78.97
60240;BME280;46102;39.012;-7.064;2022-11-02T07:41:36;99185.66;;;13.39;78.57
60240;BME280;46102;39.012;-7.064;2022-11-02T07:43:36;99189.59;;;13.47;78.54
60240;BME280;46102;39.012;-7.064;2022-11-02T07:45:48;99199.97;;;13.59;77.99
60240;BME280;46102;39.012;-7.064;2022-11-02T07:47:49;99204.72;;;13.67;77.63
60240;BME280;46102;39.012;-7.064;2022-11-02T07:49:50;99211.19;;;13.80;77.25
60240;BME280;46102;39.012;-7.064;2022-11-02T07:51:51;99211.88;;;13.85;76.97
60240;BME280;46102;39.012;-7.064;2022-11-02T07:53:52;99214.28;;;13.95;76.93
60240;BME280;46102;39.012;-7.064;2022-11-02T07:55:53;99210.75;;;14.04;76.39
60240;BME280;46102;39.012;-7.064;2022-11-02T07:57:56;99206.53;;;14.15;75.94
60240;BME280;46102;39.012;-7.064;2022-11-02T07:59:57;99211.19;;;14.32;75.53
60240;BME280;46102;39.012;-7.064;2022-11-02T08:01:57;99208.78;;;14.48;74.66
60240;BME280;46102;39.012;-7.064;2022-11-02T08:03:58;99220.28;;;14.67;74.35
60240;BME280;46102;39.012;-7.064;2022-11-02T08:06:00;99228.06;;;14.83;73.33
60240;BME280;46102;39.012;-7.064;2022-11-02T08:08:04;99229.13;;;14.99;72.91
60240;BME280;46102;39.012;-7.064;2022-11-02T08:10:07;99219.63;;;15.17;72.04
60240;BME280;46102;39.012;-7.064;2022-11-02T08:12:07;99225.75;;;15.32;71.24
60240;BME280;46102;39.012;-7.064;2022-11-02T08:14:08;99226.69;;;15.45;70.58
60240;BME280;46102;39.012;-7.064;2022-11-02T08:16:09;99232.44;;;15.60;69.91
60240;BME280;46102;39.012;-7.064;2022-11-02T08:18:15;99230.28;;;15.75;69.17
60240;BME280;46102;39.012;-7.064;2022-11-02T08:20:16;99231.66;;;15.90;69.03
60240;BME280;46102;39.012;-7.064;2022-11-02T08:22:17;99233.78;;;16.05;67.97
60240;BME280;46102;39.012;-7.064;2022-11-02T08:24:17;99230.41;;;16.20;68.05
60240;BME280;46102;39.012;-7.064;2022-11-02T08:26:18;99234.66;;;16.39;67.31
60240;BME280;46102;39.012;-7.064;2022-11-02T08:28:29;99234.72;;;16.51;65.92
60240;BME280;46102;39.012;-7.064;2022-11-02T08:30:36;99239.81;;;16.61;65.65
60240;BME280;46102;39.012;-7.064;2022-11-02T08:32:37;99238.25;;;16.73;65.08
60240;BME280;46102;39.012;-7.064;2022-11-02T08:34:38;99240.75;;;16.87;64.97
60240;BME280;46102;39.012;-7.064;2022-11-02T08:36:39;99243.56;;;16.99;64.67
60240;BME280;46102;39.012;-7.064;2022-11-02T08:38:40;99238.25;;;17.06;63.59
60240;BME280;46102;39.012;-7.064;2022-11-02T08:40:42;99234.56;;;17.14;62.84
60240;BME280;46102;39.012;-7.064;2022-11-02T08:42:42;99244.28;;;17.20;62.47
60240;BME280;46102;39.012;-7.064;2022-11-02T08:44:43;99238.28;;;17.31;62.11
60240;BME280;46102;39.012;-7.064;2022-11-02T08:46:44;99234.22;;;17.40;61.89
60240;BME280;46102;39.012;-7.064;2022-11-02T08:48:45;99231.81;;;17.51;61.58
60240;BME280;46102;39.012;-7.064;2022-11-02T08:50:47;99237.38;;;17.63;61.13
60240;BME280;46102;39.012;-7.064;2022-11-02T08:52:48;99247.75;;;17.79;61.21
60240;BME280;46102;39.012;-7.064;2022-11-02T08:54:50;99244.19;;;17.91;60.06
60240;BME280;46102;39.012;-7.064;2022-11-02T08:56:50;99237.69;;;17.99;60.55
60240;BME280;46102;39.012;-7.064;2022-11-02T08:58:51;99238.13;;;18.13;60.41
60240;BME280;46102;39.012;-7.064;2022-11-02T09:00:52;99243.63;;;18.25;59.83
60240;BME280;46102;39.012;-7.064;2022-11-02T09:02:58;99243.03;;;18.32;59.67
60240;BME280;46102;39.012;-7.064;2022-11-02T09:04:59;99242.63;;;18.46;59.36
60240;BME280;46102;39.012;-7.064;2022-11-02T09:07:00;99250.31;;;18.65;58.94
60240;BME280;46102;39.012;-7.064;2022-11-02T09:09:01;99253.53;;;18.79;58.23
60240;BME280;46102;39.012;-7.064;2022-11-02T09:11:02;99249.50;;;18.92;58.11
60240;BME280;46102;39.012;-7.064;2022-11-02T09:13:05;99245.66;;;18.97;57.58
60240;BME280;46102;39.012;-7.064;2022-11-02T09:15:06;99253.84;;;19.06;57.38
60240;BME280;46102;39.012;-7.064;2022-11-02T09:17:08;99257.81;;;19.21;56.89
60240;BME280;46102;39.012;-7.064;2022-11-02T09:19:09;99257.81;;;19.37;56.59
60240;BME280;46102;39.012;-7.064;2022-11-02T09:21:10;99252.16;;;19.49;56.13
60240;BME280;46102;39.012;-7.064;2022-11-02T09:23:11;99255.91;;;19.56;55.09
60240;BME280;46102;39.012;-7.064;2022-11-02T09:25:13;99267.50;;;19.74;54.79
60240;BME280;46102;39.012;-7.064;2022-11-02T09:27:14;99269.09;;;19.91;54.11
60240;BME280;46102;39.012;-7.064;2022-11-02T09:29:15;99260.13;;;19.82;53.58
60240;BME280;46102;39.012;-7.064;2022-11-02T09:31:16;99264.28;;;19.72;54.10
60240;BME280;46102;39.012;-7.064;2022-11-02T09:33:17;99266.41;;;19.79;54.36
60240;BME280;46102;39.012;-7.064;2022-11-02T09:35:18;99261.44;;;20.04;54.00
60240;BME280;46102;39.012;-7.064;2022-11-02T09:37:19;99259.69;;;20.35;53.21
60240;BME280;46102;39.012;-7.064;2022-11-02T09:39:19;99253.47;;;20.42;52.20
60240;BME280;46102;39.012;-7.064;2022-11-02T09:41:36;99243.59;;;20.64;52.51
60240;BME280;46102;39.012;-7.064;2022-11-02T09:43:51;99242.09;;;20.89;51.91
60240;BME280;46102;39.012;-7.064;2022-11-02T09:46:03;99240.25;;;20.97;51.57
60240;BME280;46102;39.012;-7.064;2022-11-02T09:48:09;99238.09;;;21.33;51.88
60240;BME280;46102;39.012;-7.064;2022-11-02T09:50:17;99243.31;;;21.84;51.04
60240;BME280;46102;39.012;-7.064;2022-11-02T09:54:33;99251.03;;;21.94;49.74
60240;BME280;46102;39.012;-7.064;2022-11-02T09:56:35;99247.81;;;21.92;49.23
60240;BME280;46102;39.012;-7.064;2022-11-02T09:58:38;99240.25;;;21.93;49.08
60240;BME280;46102;39.012;-7.064;2022-11-02T10:00:40;99237.88;;;21.95;48.88
60240;BME280;46102;39.012;-7.064;2022-11-02T10:03:00;99248.31;;;21.98;49.75
60240;BME280;46102;39.012;-7.064;2022-11-02T10:07:48;99233.81;;;22.19;48.98
60240;BME280;46102;39.012;-7.064;2022-11-02T10:10:04;99234.88;;;22.34;48.39
60240;BME280;46102;39.012;-7.064;2022-11-02T10:12:14;99236.19;;;22.47;48.40
60240;BME280;46102;39.012;-7.064;2022-11-02T10:14:24;99231.47;;;22.21;48.56
60240;BME280;46102;39.012;-7.064;2022-11-02T10:16:39;99223.03;;;22.17;49.14
60240;BME280;46102;39.012;-7.064;2022-11-02T10:18:44;99229.13;;;21.96;49.35
60240;BME280;46102;39.012;-7.064;2022-11-02T10:20:52;99218.19;;;21.57;50.08
60240;BME280;46102;39.012;-7.064;2022-11-02T10:22:58;99218.63;;;21.59;49.93
60240;BME280;46102;39.012;-7.064;2022-11-02T10:25:04;99222.94;;;21.57;50.22
60240;BME280;46102;39.012;-7.064;2022-11-02T10:27:15;99212.66;;;21.61;50.12
60240;BME280;46102;39.012;-7.064;2022-11-02T10:31:31;99202.16;;;22.08;49.69
60240;BME280;46102;39.012;-7.064;2022-11-02T10:33:32;99205.72;;;22.35;49.34
60240;BME280;46102;39.012;-7.064;2022-11-02T10:35:48;99193.03;;;22.41;48.54
60240;BME280;46102;39.012;-7.064;2022-11-02T10:49:51;99179.06;;;22.44;48.78
60240;BME280;46102;39.012;-7.064;2022-11-02T10:51:54;99179.84;;;22.41;48.75
60240;BME280;46102;39.012;-7.064;2022-11-02T10:53:55;99175.53;;;22.48;48.41
60240;BME280;46102;39.012;-7.064;2022-11-02T10:56:17;99170.19;;;22.35;48.50
60240;BME280;46102;39.012;-7.064;2022-11-02T10:58:20;99171.13;;;22.47;48.68
60240;BME280;46102;39.012;-7.064;2022-11-02T11:02:23;99175.69;;;22.62;48.20
60240;BME280;46102;39.012;-7.064;2022-11-02T11:04:31;99176.97;;;22.72;48.21
60240;BME280;46102;39.012;-7.064;2022-11-02T11:06:36;99167.06;;;22.78;48.35
60240;BME280;46102;39.012;-7.064;2022-11-02T11:08:45;99175.88;;;22.80;48.09
60240;BME280;46102;39.012;-7.064;2022-11-02T11:10:49;99164.00;;;22.94;48.04
60240;BME280;46102;39.012;-7.064;2022-11-02T11:12:50;99170.56;;;22.71;47.40
60240;BME280;46102;39.012;-7.064;2022-11-02T11:14:55;99162.69;;;22.80;47.49
60240;BME280;46102;39.012;-7.064;2022-11-02T11:16:58;99155.56;;;22.86;47.49
60240;BME280;46102;39.012;-7.064;2022-11-02T11:18:59;99159.38;;;23.09;47.36
60240;BME280;46102;39.012;-7.064;2022-11-02T11:21:01;99149.50;;;23.25;47.82
60240;BME280;46102;39.012;-7.064;2022-11-02T11:27:22;99140.53;;;23.57;46.85
60240;BME280;46102;39.012;-7.064;2022-11-02T11:29:23;99138.50;;;23.54;46.73
60240;BME280;46102;39.012;-7.064;2022-11-02T11:31:24;99141.22;;;23.40;47.13
60240;BME280;46102;39.012;-7.064;2022-11-02T11:33:25;99141.84;;;23.19;47.87
60240;BME280;46102;39.012;-7.064;2022-11-02T11:35:34;99145.81;;;23.14;48.26
60240;BME280;46102;39.012;-7.064;2022-11-02T11:37:47;99137.03;;;23.16;48.68